Time;durP1;ratioP1;P1;durP2;ratioP2;P2;SDS_P1;SDS_P2;PMS_P1;PMS_P2;Temp;Humidity;BMP_temperature;BMP_pressure;BME280_temperature;BME280_humidity;BME280_pressure;Samples;Min_cycle;Max_cycle;Signal;HPM_P1;HPM_P2
2022/09/23 00:00:33;;;;;;;3.60;2.15;;;;;;;;;;5074162;28;20056;-74
2022/09/23 00:03:00;;;;;;;3.88;2.35;;;;;;;;;;5073277;28;20896;-73
2022/09/23 00:05:28;;;;;;;4.80;2.63;;;;;;;;;;5076674;28;20139;-74
2022/09/23 00:07:56;;;;;;;5.05;2.55;;;;;;;;;;5071054;28;20897;-74
2022/09/23 00:10:24;;;;;;;5.10;2.47;;;;;;;;;;5068166;28;20099;-74
2022/09/23 00:12:51;;;;;;;4.00;2.08;;;;;;;;;;5069464;28;20083;-74
2022/09/23 00:15:18;;;;;;;3.65;2.13;;;;;;;;;;5067228;28;20045;-73
2022/09/23 00:17:46;;;;;;;3.97;2.05;;;;;;;;;;5073037;28;20045;-74
2022/09/23 00:20:14;;;;;;;3.03;2.10;;;;;;;;;;5067465;28;20050;-74
2022/09/23 00:22:41;;;;;;;2.88;2.03;;;;;;;;;;5066451;28;20096;-74
2022/09/23 00:25:09;;;;;;;7.68;2.17;;;;;;;;;;5069697;28;20057;-74
2022/09/23 00:27:37;;;;;;;3.15;2.30;;;;;;;;;;5070935;28;20049;-74
2022/09/23 00:30:05;;;;;;;3.53;2.25;;;;;;;;;;5077015;28;20845;-74
2022/09/23 00:32:33;;;;;;;5.00;2.90;;;;;;;;;;5087832;28;20044;-74
2022/09/23 00:35:02;;;;;;;6.07;2.53;;;;;;;;;;5073880;28;20041;-75
2022/09/23 00:37:30;;;;;;;6.60;2.40;;;;;;;;;;5067390;28;20492;-74
2022/09/23 00:39:58;;;;;;;2.88;2.00;;;;;;;;;;5066388;28;20044;-74
2022/09/23 00:42:25;;;;;;;4.78;2.30;;;;;;;;;;5069872;28;20048;-74
2022/09/23 00:44:54;;;;;;;4.28;2.33;;;;;;;;;;5073672;28;20057;-73
2022/09/23 00:47:23;;;;;;;4.07;2.40;;;;;;;;;;5070633;28;20989;-74
2022/09/23 00:50:00;;;;;;;5.03;2.50;;;;;;;;;;5081570;28;20088;-74
2022/09/23 00:52:27;;;;;;;3.22;2.22;;;;;;;;;;5068535;28;20186;-73
2022/09/23 00:54:58;;;;;;;3.33;2.30;;;;;;;;;;5058934;28;20702;-74
2022/09/23 00:57:26;;;;;;;3.40;2.17;;;;;;;;;;5075473;28;20059;-74
2022/09/23 00:59:53;;;;;;;3.88;2.60;;;;;;;;;;5086543;28;20049;-74
2022/09/23 01:02:21;;;;;;;4.57;2.63;;;;;;;;;;5068034;28;20057;-74
2022/09/23 01:04:49;;;;;;;3.53;2.25;;;;;;;;;;5071446;28;20065;-75
2022/09/23 01:07:17;;;;;;;6.53;2.50;;;;;;;;;;5069887;28;20053;-74
2022/09/23 01:09:45;;;;;;;5.10;2.25;;;;;;;;;;5077535;28;20094;-74
2022/09/23 01:12:30;;;;;;;5.60;2.17;;;;;;;;;;5070819;28;20861;-74
2022/09/23 01:15:06;;;;;;;3.92;2.60;;;;;;;;;;5077452;28;20079;-74
2022/09/23 01:17:39;;;;;;;4.75;2.78;;;;;;;;;;5072258;28;20140;-74
2022/09/23 01:20:25;;;;;;;6.13;2.60;;;;;;;;;;5073856;28;20049;-74
2022/09/23 01:22:58;;;;;;;8.18;2.33;;;;;;;;;;5065772;28;20053;-75
2022/09/23 01:25:25;;;;;;;;;;;;;;;;;;5066576;28;20048;-74
2022/09/23 01:28:11;;;;;;;4.00;2.42;;;;;;;;;;5071159;28;42073;-74
2022/09/23 01:30:46;;;;;;;5.18;2.50;;;;;;;;;;5067651;28;20052;-74
2022/09/23 01:33:42;;;;;;;5.07;2.35;;;;;;;;;;5061766;28;20049;-74
2022/09/23 01:36:14;;;;;;;4.07;2.40;;;;;;;;;;5057641;28;20053;-75
2022/09/23 01:38:44;;;;;;;3.67;2.25;;;;;;;;;;5070674;28;20052;-74
2022/09/23 01:41:16;;;;;;;3.58;2.53;;;;;;;;;;5079095;28;20187;-74
2022/09/23 01:43:49;;;;;;;3.22;2.08;;;;;;;;;;5073366;28;20115;-74
2022/09/23 01:46:18;;;;;;;4.17;2.50;;;;;;;;;;5076180;28;20561;-74
2022/09/23 01:48:58;;;;;;;3.50;2.25;;;;;;;;;;5075157;28;20137;-75
2022/09/23 01:51:32;;;;;;;5.90;2.95;;;;;;;;;;5065442;28;20111;-74
2022/09/23 01:54:06;;;;;;;6.00;2.80;;;;;;;;;;5073020;28;20503;-74
2022/09/23 01:56:37;;;;;;;4.93;2.20;;;;;;;;;;5063290;28;20048;-74
2022/09/23 01:59:14;;;;;;;4.13;2.50;;;;;;;;;;5066906;28;20873;-73
2022/09/23 02:01:54;;;;;;;5.03;2.40;;;;;;;;;;5066480;28;20322;-73
2022/09/23 02:04:30;;;;;;;3.20;2.28;;;;;;;;;;5078759;28;20086;-73
2022/09/23 02:06:59;;;;;;;9.73;2.97;;;;;;;;;;5071943;28;20064;-74
2022/09/23 02:09:35;;;;;;;3.42;2.15;;;;;;;;;;5069358;28;20106;-74
2022/09/23 02:12:04;;;;;;;4.38;2.63;;;;;;;;;;5084791;28;20049;-74
2022/09/23 02:14:34;;;;;;;5.22;2.90;;;;;;;;;;5073805;28;20507;-74
2022/09/23 02:17:07;;;;;;;4.13;2.42;;;;;;;;;;5068376;28;20056;-74
2022/09/23 02:19:42;;;;;;;4.03;2.30;;;;;;;;;;5069296;28;20057;-74
2022/09/23 02:22:25;;;;;;;7.18;2.20;;;;;;;;;;5074574;28;20055;-74
2022/09/23 02:24:53;;;;;;;3.63;2.38;;;;;;;;;;5074054;28;20129;-74
2022/09/23 02:27:28;;;;;;;3.92;2.17;;;;;;;;;;5073726;28;20045;-74
2022/09/23 02:30:04;;;;;;;8.93;2.67;;;;;;;;;;5078404;28;20442;-74
2022/09/23 02:32:41;;;;;;;3.83;2.20;;;;;;;;;;5070647;28;20052;-74
2022/09/23 02:35:18;;;;;;;4.45;2.47;;;;;;;;;;5071622;28;20044;-74
2022/09/23 02:37:48;;;;;;;4.28;2.45;;;;;;;;;;5067539;28;20107;-74
2022/09/23 02:40:22;;;;;;;4.85;2.45;;;;;;;;;;5071400;28;20053;-74
2022/09/23 02:42:56;;;;;;;4.00;2.53;;;;;;;;;;5073521;28;20053;-74
2022/09/23 02:45:23;;;;;;;4.28;2.50;;;;;;;;;;5070267;28;20057;-74
2022/09/23 02:47:52;;;;;;;5.43;2.42;;;;;;;;;;5070787;28;20064;-74
2022/09/23 02:50:21;;;;;;;7.68;2.63;;;;;;;;;;5073407;28;20053;-74
2022/09/23 02:52:48;;;;;;;4.30;2.60;;;;;;;;;;5080729;28;20068;-74
2022/09/23 02:55:17;;;;;;;5.05;2.60;;;;;;;;;;5065881;28;20040;-74
2022/09/23 02:57:45;;;;;;;4.25;2.88;;;;;;;;;;5069781;28;20060;-74
2022/09/23 03:00:13;;;;;;;3.70;2.50;;;;;;;;;;5072896;28;20462;-73
2022/09/23 03:02:49;;;;;;;6.40;2.72;;;;;;;;;;5083642;28;20044;-73
2022/09/23 03:05:30;;;;;;;4.57;2.72;;;;;;;;;;5068907;28;20061;-74
2022/09/23 03:08:05;;;;;;;3.90;2.65;;;;;;;;;;5070526;28;20098;-73
2022/09/23 03:10:32;;;;;;;4.43;2.33;;;;;;;;;;5073356;28;20056;-74
2022/09/23 03:13:03;;;;;;;4.75;2.72;;;;;;;;;;5073026;28;20894;-74
2022/09/23 03:15:34;;;;;;;5.82;3.17;;;;;;;;;;5071059;28;20519;-74
2022/09/23 03:18:30;;;;;;;4.07;2.42;;;;;;;;;;5067347;28;20908;-74
2022/09/23 03:21:09;;;;;;;4.43;2.55;;;;;;;;;;5065041;28;20049;-74
2022/09/23 03:23:37;;;;;;;3.55;2.47;;;;;;;;;;5069888;28;20053;-73
2022/09/23 03:26:34;;;;;;;4.38;2.35;;;;;;;;;;5065826;28;20052;-73
2022/09/23 03:29:07;;;;;;;5.38;2.58;;;;;;;;;;5061492;28;20055;-74
2022/09/23 03:31:36;;;;;;;5.05;2.70;;;;;;;;;;5072790;28;20057;-73
2022/09/23 03:34:04;;;;;;;4.22;2.53;;;;;;;;;;5071244;28;20060;-73
2022/09/23 03:36:50;;;;;;;5.15;2.70;;;;;;;;;;5082157;28;20086;-73
2022/09/23 03:39:31;;;;;;;4.32;2.78;;;;;;;;;;5080977;28;20053;-74
2022/09/23 03:41:59;;;;;;;5.70;2.72;;;;;;;;;;5068066;28;20064;-73
2022/09/23 03:44:28;;;;;;;3.22;2.17;;;;;;;;;;5081068;28;20044;-74
2022/09/23 03:46:59;;;;;;;6.95;2.85;;;;;;;;;;5072225;28;20049;-73
2022/09/23 03:49:27;;;;;;;3.80;2.60;;;;;;;;;;5077691;28;20053;-74
2022/09/23 03:51:55;;;;;;;3.95;2.40;;;;;;;;;;5076418;28;20049;-73
2022/09/23 03:54:22;;;;;;;5.15;3.15;;;;;;;;;;5070614;28;20053;-74
2022/09/23 03:56:50;;;;;;;3.72;2.35;;;;;;;;;;5067168;28;20495;-73
2022/09/23 03:59:17;;;;;;;7.22;2.80;;;;;;;;;;5077902;28;20049;-74
2022/09/23 04:01:44;;;;;;;4.00;2.53;;;;;;;;;;5065259;28;20056;-73
2022/09/23 04:04:13;;;;;;;3.83;2.40;;;;;;;;;;5076848;28;20076;-73
2022/09/23 04:06:40;;;;;;;11.65;3.45;;;;;;;;;;5067528;28;20115;-74
2022/09/23 04:09:07;;;;;;;4.78;2.80;;;;;;;;;;5087516;28;20049;-74
2022/09/23 04:11:35;;;;;;;4.13;2.58;;;;;;;;;;5074316;28;20048;-73
2022/09/23 04:14:03;;;;;;;4.13;2.45;;;;;;;;;;5062264;28;20056;-74
2022/09/23 04:16:30;;;;;;;4.53;2.90;;;;;;;;;;5081491;28;20057;-74
2022/09/23 04:18:58;;;;;;;3.72;2.35;;;;;;;;;;5074350;28;20133;-74
2022/09/23 04:21:26;;;;;;;6.28;3.10;;;;;;;;;;5077637;28;20049;-74
2022/09/23 04:23:53;;;;;;;6.15;3.30;;;;;;;;;;5067679;28;20076;-73
2022/09/23 04:26:21;;;;;;;4.90;2.90;;;;;;;;;;5068742;28;20139;-74
2022/09/23 04:28:48;;;;;;;5.18;3.00;;;;;;;;;;5078653;28;20049;-74
2022/09/23 04:31:15;;;;;;;5.18;2.95;;;;;;;;;;5075283;28;20041;-73
2022/09/23 04:33:42;;;;;;;9.35;3.20;;;;;;;;;;5084812;28;20080;-74
2022/09/23 04:36:09;;;;;;;6.55;3.20;;;;;;;;;;5070178;28;20065;-74
2022/09/23 04:38:36;;;;;;;5.55;3.20;;;;;;;;;;5074180;28;20058;-73
2022/09/23 04:41:03;;;;;;;5.03;3.50;;;;;;;;;;5074060;28;20060;-74
2022/09/23 04:43:30;;;;;;;6.13;3.40;;;;;;;;;;5078536;28;20130;-74
2022/09/23 04:46:01;;;;;;;4.88;3.25;;;;;;;;;;5072149;28;20104;-74
2022/09/23 04:48:28;;;;;;;6.05;3.78;;;;;;;;;;5071114;28;20052;-74
2022/09/23 04:51:03;;;;;;;10.10;4.55;;;;;;;;;;5078238;28;20980;-74
2022/09/23 04:53:30;;;;;;;8.73;4.97;;;;;;;;;;5077673;28;20048;-74
2022/09/23 04:56:01;;;;;;;7.07;4.47;;;;;;;;;;5068770;28;20049;-74
2022/09/23 04:58:28;;;;;;;9.10;5.22;;;;;;;;;;5071792;28;20073;-74
2022/09/23 05:00:59;;;;;;;7.22;4.82;;;;;;;;;;5075087;28;20931;-74
2022/09/23 05:03:34;;;;;;;9.25;5.55;;;;;;;;;;5072429;28;20174;-74
2022/09/23 05:06:01;;;;;;;10.02;5.85;;;;;;;;;;5081160;28;20053;-74
2022/09/23 05:08:29;;;;;;;8.85;5.20;;;;;;;;;;5069040;28;20111;-73
2022/09/23 05:10:57;;;;;;;10.73;5.38;;;;;;;;;;5067107;28;20107;-73
2022/09/23 05:13:24;;;;;;;9.82;5.85;;;;;;;;;;5079530;28;20048;-73
2022/09/23 05:16:02;;;;;;;10.85;6.35;;;;;;;;;;5070604;28;20474;-74
2022/09/23 05:18:36;;;;;;;10.35;5.53;;;;;;;;;;5073317;28;20060;-74
2022/09/23 05:21:03;;;;;;;11.95;6.80;;;;;;;;;;5074880;28;20495;-74
2022/09/23 05:23:30;;;;;;;10.10;6.30;;;;;;;;;;5075616;28;20048;-73
2022/09/23 05:26:00;;;;;;;11.00;6.88;;;;;;;;;;5071927;28;20521;-74
2022/09/23 05:28:30;;;;;;;16.17;7.93;;;;;;;;;;5080189;28;20049;-73
2022/09/23 05:31:04;;;;;;;18.00;7.95;;;;;;;;;;5070317;28;20057;-74
2022/09/23 05:33:31;;;;;;;13.07;7.38;;;;;;;;;;5070945;28;20056;-74
2022/09/23 05:35:59;;;;;;;15.40;8.30;;;;;;;;;;5079392;28;20044;-74
2022/09/23 05:38:30;;;;;;;11.23;7.38;;;;;;;;;;5070266;28;20091;-74
2022/09/23 05:40:58;;;;;;;10.38;6.65;;;;;;;;;;5068282;28;20479;-74
2022/09/23 05:43:25;;;;;;;13.23;8.18;;;;;;;;;;5071048;28;20053;-74
2022/09/23 05:46:06;;;;;;;12.95;8.30;;;;;;;;;;5070374;28;20045;-75
2022/09/23 05:48:35;;;;;;;13.13;7.43;;;;;;;;;;5064072;28;20053;-74
2022/09/23 05:51:03;;;;;;;14.48;7.45;;;;;;;;;;5079240;28;20053;-73
2022/09/23 05:53:30;;;;;;;12.93;8.05;;;;;;;;;;5074949;28;20136;-73
2022/09/23 05:55:57;;;;;;;11.95;7.45;;;;;;;;;;5073579;28;20896;-73
2022/09/23 05:58:26;;;;;;;12.70;7.85;;;;;;;;;;5067607;28;20115;-74
2022/09/23 06:00:55;;;;;;;11.35;7.15;;;;;;;;;;5063765;28;20037;-74
2022/09/23 06:03:23;;;;;;;12.88;7.70;;;;;;;;;;5062342;28;20049;-75
2022/09/23 06:05:54;;;;;;;12.48;8.23;;;;;;;;;;5075371;28;20059;-74
2022/09/23 06:08:21;;;;;;;14.32;7.93;;;;;;;;;;5074417;28;20045;-73
2022/09/23 06:10:49;;;;;;;12.52;8.07;;;;;;;;;;5066256;28;20057;-74
2022/09/23 06:13:20;;;;;;;16.05;7.93;;;;;;;;;;5072435;28;20060;-74
2022/09/23 06:15:48;;;;;;;12.55;8.00;;;;;;;;;;5074144;28;20098;-73
2022/09/23 06:18:16;;;;;;;15.85;8.50;;;;;;;;;;5070802;28;20052;-74
2022/09/23 06:20:43;;;;;;;13.35;8.25;;;;;;;;;;5067691;28;20056;-74
2022/09/23 06:23:11;;;;;;;19.02;8.85;;;;;;;;;;5068646;28;20057;-73
2022/09/23 06:25:38;;;;;;;13.20;8.27;;;;;;;;;;5068295;28;20738;-74
2022/09/23 06:28:10;;;;;;;14.20;8.05;;;;;;;;;;5076401;28;20088;-74
2022/09/23 06:30:41;;;;;;;17.00;8.27;;;;;;;;;;5068060;28;20056;-74
2022/09/23 06:33:09;;;;;;;20.65;8.80;;;;;;;;;;5072873;28;20572;-74
2022/09/23 06:35:36;;;;;;;13.15;8.70;;;;;;;;;;5079927;28;20048;-73
2022/09/23 06:38:04;;;;;;;13.60;8.45;;;;;;;;;;5071775;28;20592;-74
2022/09/23 06:40:31;;;;;;;12.35;8.43;;;;;;;;;;5077124;28;20103;-73
2022/09/23 06:42:59;;;;;;;21.38;8.63;;;;;;;;;;5068217;28;20898;-74
2022/09/23 06:45:27;;;;;;;18.58;9.10;;;;;;;;;;5068179;28;20052;-74
2022/09/23 06:47:55;;;;;;;16.83;8.88;;;;;;;;;;5067836;28;20055;-74
2022/09/23 06:50:22;;;;;;;16.30;9.40;;;;;;;;;;5069603;28;20099;-74
2022/09/23 06:52:54;;;;;;;15.63;9.52;;;;;;;;;;5067438;28;20042;-74
2022/09/23 06:55:26;;;;;;;16.50;8.98;;;;;;;;;;5071000;28;20049;-74
2022/09/23 06:57:54;;;;;;;15.48;9.40;;;;;;;;;;5066971;28;20049;-74
2022/09/23 07:00:21;;;;;;;15.25;8.45;;;;;;;;;;5067357;28;20060;-74
2022/09/23 07:02:48;;;;;;;14.02;9.52;;;;;;;;;;5069430;28;20053;-74
2022/09/23 07:05:16;;;;;;;17.30;10.15;;;;;;;;;;5068353;28;20060;-73
2022/09/23 07:07:44;;;;;;;19.52;9.77;;;;;;;;;;5071403;28;20099;-73
2022/09/23 07:10:11;;;;;;;15.20;9.35;;;;;;;;;;5067731;28;20045;-74
2022/09/23 07:12:39;;;;;;;21.73;9.75;;;;;;;;;;5065833;28;20119;-73
2022/09/23 07:15:07;;;;;;;14.00;9.68;;;;;;;;;;5065504;28;20052;-73
2022/09/23 07:17:34;;;;;;;18.20;9.30;;;;;;;;;;5066862;28;20060;-74
2022/09/23 07:20:01;;;;;;;15.63;9.48;;;;;;;;;;5066275;28;20111;-74
2022/09/23 07:22:29;;;;;;;15.70;9.60;;;;;;;;;;5065468;28;20136;-74
2022/09/23 07:24:56;;;;;;;14.68;8.80;;;;;;;;;;5066567;28;20049;-74
2022/09/23 07:27:24;;;;;;;14.98;9.13;;;;;;;;;;5065257;28;20087;-73
2022/09/23 07:29:51;;;;;;;13.30;8.40;;;;;;;;;;5067863;28;20083;-72
2022/09/23 07:32:20;;;;;;;14.27;9.23;;;;;;;;;;5068405;28;20049;-74
2022/09/23 07:34:48;;;;;;;19.00;8.93;;;;;;;;;;5065988;28;20049;-74
2022/09/23 07:37:17;;;;;;;16.58;9.18;;;;;;;;;;5064138;28;21034;-74
2022/09/23 07:39:44;;;;;;;15.77;9.20;;;;;;;;;;5065849;28;20110;-75
2022/09/23 07:42:13;;;;;;;13.27;8.15;;;;;;;;;;5067372;28;20668;-75
2022/09/23 07:44:45;;;;;;;19.00;8.80;;;;;;;;;;5067130;28;20053;-74
2022/09/23 07:47:13;;;;;;;14.43;8.85;;;;;;;;;;5070202;28;20060;-74
2022/09/23 07:49:40;;;;;;;18.98;9.27;;;;;;;;;;5066579;28;20049;-74
2022/09/23 07:52:07;;;;;;;16.05;9.68;;;;;;;;;;5072929;28;20061;-74
2022/09/23 07:54:35;;;;;;;13.77;9.40;;;;;;;;;;5068742;28;20052;-74
2022/09/23 07:57:02;;;;;;;14.57;8.68;;;;;;;;;;5072878;28;20048;-75
2022/09/23 07:59:30;;;;;;;12.75;8.05;;;;;;;;;;5072178;28;20049;-75
2022/09/23 08:01:57;;;;;;;12.73;8.45;;;;;;;;;;5069170;28;20637;-75
2022/09/23 08:04:30;;;;;;;13.57;7.40;;;;;;;;;;5064509;28;20045;-74
2022/09/23 08:06:59;;;;;;;13.57;8.23;;;;;;;;;;5072972;28;20060;-75
2022/09/23 08:09:30;;;;;;;11.30;7.25;;;;;;;;;;5073371;28;20057;-74
2022/09/23 08:11:58;;;;;;;10.40;7.03;;;;;;;;;;5076763;28;20612;-74
2022/09/23 08:14:26;;;;;;;10.40;7.32;;;;;;;;;;5071512;28;20046;-74
2022/09/23 08:16:54;;;;;;;10.40;7.07;;;;;;;;;;5071121;28;20559;-74
2022/09/23 08:19:21;;;;;;;14.70;7.85;;;;;;;;;;5070195;28;20057;-74
2022/09/23 08:21:50;;;;;;;10.65;6.55;;;;;;;;;;5070172;28;20045;-74
2022/09/23 08:24:19;;;;;;;10.38;7.07;;;;;;;;;;5070710;28;20867;-75
2022/09/23 08:26:47;;;;;;;9.85;6.68;;;;;;;;;;5070445;28;20079;-74
2022/09/23 08:29:15;;;;;;;10.88;6.45;;;;;;;;;;5070603;28;20037;-74
2022/09/23 08:31:43;;;;;;;12.80;7.07;;;;;;;;;;5074382;28;20045;-74
2022/09/23 08:34:10;;;;;;;12.55;6.15;;;;;;;;;;5072150;28;20053;-75
2022/09/23 08:36:37;;;;;;;11.35;6.57;;;;;;;;;;5073496;28;20058;-73
2022/09/23 08:39:05;;;;;;;12.93;7.00;;;;;;;;;;5075591;28;20059;-75
2022/09/23 08:41:49;;;;;;;11.75;6.20;;;;;;;;;;5077417;28;20053;-75
2022/09/23 08:44:43;;;;;;;10.88;6.65;;;;;;;;;;5073376;28;20083;-75
2022/09/23 08:47:13;;;;;;;11.00;6.45;;;;;;;;;;5064106;28;20057;-75
2022/09/23 08:50:01;;;;;;;13.82;6.20;;;;;;;;;;5073514;28;20049;-74
2022/09/23 08:52:33;;;;;;;14.85;6.03;;;;;;;;;;5069972;28;20160;-75
2022/09/23 08:55:01;;;;;;;12.82;7.07;;;;;;;;;;5070805;28;20049;-74
2022/09/23 08:57:48;;;;;;;10.77;5.70;;;;;;;;;;5070740;28;20052;-75
2022/09/23 09:00:43;;;;;;;9.02;6.07;;;;;;;;;;5073056;28;20110;-74
2022/09/23 09:03:19;;;;;;;15.88;6.65;;;;;;;;;;5076499;28;20053;-75
2022/09/23 09:05:47;;;;;;;10.18;5.60;;;;;;;;;;5069124;28;20049;-74
2022/09/23 09:08:47;;;;;;;11.00;6.43;;;;;;;;;;5076072;28;20045;-74
2022/09/23 09:11:15;;;;;;;10.85;5.20;;;;;;;;;;5076030;28;20522;-75
2022/09/23 09:13:53;;;;;;;10.65;5.90;;;;;;;;;;5088354;28;20128;-75
2022/09/23 09:16:43;;;;;;;10.93;6.28;;;;;;;;;;5072894;28;20076;-75
2022/09/23 09:19:55;;;;;;;9.70;6.05;;;;;;;;;;5070964;28;20140;-75
2022/09/23 09:22:28;;;;;;;12.38;6.35;;;;;;;;;;5061479;28;20063;-74
2022/09/23 09:24:58;;;;;;;8.85;6.13;;;;;;;;;;5076833;28;20148;-74
2022/09/23 09:27:26;;;;;;;8.88;5.50;;;;;;;;;;5075163;28;20091;-75
2022/09/23 09:29:54;;;;;;;9.95;5.75;;;;;;;;;;5064713;28;20495;-74
2022/09/23 09:32:27;;;;;;;12.77;6.22;;;;;;;;;;5080469;28;20053;-74
2022/09/23 09:34:57;;;;;;;7.50;5.13;;;;;;;;;;5070713;28;20778;-74
2022/09/23 09:37:28;;;;;;;9.75;5.13;;;;;;;;;;5072222;28;20053;-75
2022/09/23 09:39:58;;;;;;;10.98;6.30;;;;;;;;;;5071129;28;20052;-75
2022/09/23 09:42:39;;;;;;;12.68;5.18;;;;;;;;;;5069097;28;20112;-74
2022/09/23 09:45:09;;;;;;;8.65;5.30;;;;;;;;;;5072539;28;20053;-74
2022/09/23 09:47:55;;;;;;;13.65;6.20;;;;;;;;;;5064775;28;20405;-74
2022/09/23 09:50:40;;;;;;;11.55;5.60;;;;;;;;;;5070005;28;20057;-75
2022/09/23 09:53:22;;;;;;;7.75;5.55;;;;;;;;;;5068840;28;20049;-74
2022/09/23 09:56:09;;;;;;;10.68;5.75;;;;;;;;;;5066803;28;20887;-75
2022/09/23 09:58:42;;;;;;;7.35;4.97;;;;;;;;;;5070887;28;20064;-75
2022/09/23 10:01:19;;;;;;;9.40;5.38;;;;;;;;;;5076220;28;20657;-74
2022/09/23 10:03:47;;;;;;;8.80;5.38;;;;;;;;;;5074978;28;20049;-75
2022/09/23 10:06:17;;;;;;;12.40;5.55;;;;;;;;;;5080991;28;20111;-75
2022/09/23 10:08:47;;;;;;;8.35;5.38;;;;;;;;;;5068781;28;20054;-73
2022/09/23 10:11:16;;;;;;;8.60;5.40;;;;;;;;;;5078169;28;20114;-75
2022/09/23 10:14:02;;;;;;;8.75;5.10;;;;;;;;;;5067795;28;20056;-74
2022/09/23 10:16:31;;;;;;;9.88;5.15;;;;;;;;;;5065968;28;20048;-74
2022/09/23 10:18:59;;;;;;;7.72;4.72;;;;;;;;;;5074916;28;20052;-74
2022/09/23 10:21:33;;;;;;;8.45;5.03;;;;;;;;;;5076171;28;20068;-74
2022/09/23 10:24:01;;;;;;;9.38;5.57;;;;;;;;;;5068717;28;20052;-74
2022/09/23 10:26:31;;;;;;;14.23;5.18;;;;;;;;;;5072800;28;21212;-75
2022/09/23 10:29:04;;;;;;;11.30;5.03;;;;;;;;;;5073999;28;20461;-75
2022/09/23 10:31:32;;;;;;;8.82;5.10;;;;;;;;;;5061727;28;20045;-74
2022/09/23 10:34:03;;;;;;;8.38;5.07;;;;;;;;;;5069178;28;20396;-73
2022/09/23 10:36:31;;;;;;;11.82;5.40;;;;;;;;;;5069566;28;20048;-75
2022/09/23 10:47:48;;;;;;;9.10;4.55;;;;;;;;;;5070280;28;20106;-75
2022/09/23 10:50:15;;;;;;;13.57;5.00;;;;;;;;;;5069572;28;20112;-75
2022/09/23 10:52:55;;;;;;;11.00;5.60;;;;;;;;;;5075085;28;20052;-75
2022/09/23 10:55:26;;;;;;;7.80;4.78;;;;;;;;;;5068940;28;20049;-75
2022/09/23 10:58:04;;;;;;;9.55;5.30;;;;;;;;;;5078604;28;20086;-74
2022/09/23 11:00:43;;;;;;;9.95;5.30;;;;;;;;;;5057440;28;20107;-74
2022/09/23 11:03:30;;;;;;;6.88;4.80;;;;;;;;;;5074493;28;20052;-75
2022/09/23 11:06:10;;;;;;;7.15;4.63;;;;;;;;;;5067942;28;20061;-74
2022/09/23 11:08:41;;;;;;;7.53;4.55;;;;;;;;;;5075998;28;20080;-74
2022/09/23 11:11:14;;;;;;;6.72;4.65;;;;;;;;;;5070362;28;20045;-74
2022/09/23 11:13:42;;;;;;;7.90;4.72;;;;;;;;;;5066183;28;20057;-77
2022/09/23 11:16:37;;;;;;;10.05;4.47;;;;;;;;;;5063688;28;20106;-74
2022/09/23 11:19:11;;;;;;;9.48;4.47;;;;;;;;;;5063890;28;20045;-75
2022/09/23 11:21:38;;;;;;;10.27;4.88;;;;;;;;;;5064702;28;20075;-74
2022/09/23 11:24:05;;;;;;;7.10;4.13;;;;;;;;;;5070217;28;20051;-75
2022/09/23 11:26:53;;;;;;;10.13;4.63;;;;;;;;;;5075251;28;20080;-74
2022/09/23 11:29:41;;;;;;;7.72;4.13;;;;;;;;;;5068013;28;20060;-74
2022/09/23 11:32:38;;;;;;;9.27;3.65;;;;;;;;;;5069808;28;20147;-74
2022/09/23 11:35:25;;;;;;;7.32;3.60;;;;;;;;;;5069416;28;20056;-75
2022/09/23 11:38:15;;;;;;;8.82;3.67;;;;;;;;;;5071936;28;20041;-74
2022/09/23 11:40:44;;;;;;;4.65;3.40;;;;;;;;;;5071047;28;20934;-75
2022/09/23 11:43:16;;;;;;;10.00;3.75;;;;;;;;;;5069658;28;20059;-74
2022/09/23 11:45:51;;;;;;;7.00;4.00;;;;;;;;;;5077792;28;20049;-74
2022/09/23 11:48:24;;;;;;;8.65;3.70;;;;;;;;;;5073735;28;20052;-75
2022/09/23 11:50:52;;;;;;;;;;;;;;;;;;5077197;28;20065;-74
2022/09/23 11:53:24;;;;;;;6.35;3.22;;;;;;;;;;5069253;28;44555;-74
2022/09/23 11:56:03;;;;;;;7.13;3.83;;;;;;;;;;5068183;28;20613;-74
2022/09/23 11:58:46;;;;;;;9.15;3.63;;;;;;;;;;5072723;28;20056;-74
2022/09/23 12:01:30;;;;;;;8.98;3.25;;;;;;;;;;5072473;28;20049;-74
2022/09/23 12:04:07;;;;;;;6.57;3.30;;;;;;;;;;5080400;28;20122;-74
2022/09/23 12:06:47;;;;;;;5.45;3.00;;;;;;;;;;5069106;28;20068;-74
2022/09/23 12:09:18;;;;;;;8.77;2.58;;;;;;;;;;5063657;28;20056;-75
2022/09/23 12:12:29;;;;;;;5.47;2.80;;;;;;;;;;5063756;28;20053;-74
2022/09/23 12:15:06;;;;;;;7.90;3.28;;;;;;;;;;5072194;28;20057;-75
2022/09/23 12:17:42;;;;;;;5.30;3.03;;;;;;;;;;5060340;28;20061;-75
2022/09/23 12:20:21;;;;;;;7.22;3.38;;;;;;;;;;5065915;28;20060;-75
2022/09/23 12:23:05;;;;;;;5.93;2.83;;;;;;;;;;5064476;28;20053;-75
2022/09/23 12:25:32;;;;;;;4.95;2.70;;;;;;;;;;5068999;28;20064;-75
2022/09/23 12:28:02;;;;;;;9.63;2.95;;;;;;;;;;5069059;28;20813;-75
2022/09/23 12:30:31;;;;;;;7.15;2.83;;;;;;;;;;5065076;28;20107;-75
2022/09/23 12:33:07;;;;;;;5.88;2.80;;;;;;;;;;5072686;28;20031;-75
2022/09/23 12:35:40;;;;;;;11.07;3.28;;;;;;;;;;5066073;28;20052;-75
2022/09/23 12:38:18;;;;;;;7.78;3.00;;;;;;;;;;5068991;28;20148;-75
2022/09/23 12:40:45;;;;;;;5.45;2.97;;;;;;;;;;5068413;28;20052;-75
2022/09/23 12:43:16;;;;;;;4.20;2.60;;;;;;;;;;5080276;28;20537;-75
2022/09/23 12:45:44;;;;;;;7.97;3.05;;;;;;;;;;5078304;28;20075;-74
2022/09/23 12:48:17;;;;;;;7.95;3.38;;;;;;;;;;5070343;28;20045;-74
2022/09/23 12:50:57;;;;;;;5.30;2.65;;;;;;;;;;5070337;28;20110;-75
2022/09/23 12:53:31;;;;;;;10.23;2.90;;;;;;;;;;5071250;28;20107;-74
2022/09/23 12:55:57;;;;;;;;;;;;;;;;;;5078669;28;20510;-75
2022/09/23 12:58:43;;;;;;;4.75;3.03;;;;;;;;;;5064435;28;45078;-75
2022/09/23 13:01:18;;;;;;;6.32;3.13;;;;;;;;;;5065061;28;20053;-75
2022/09/23 13:06:40;;;;;;;4.55;2.92;;;;;;;;;;5080878;28;20152;-75
2022/09/23 13:09:09;;;;;;;5.22;3.17;;;;;;;;;;5076972;28;20045;-75
2022/09/23 13:11:40;;;;;;;5.30;3.40;;;;;;;;;;5073637;28;20047;-75
2022/09/23 13:14:07;;;;;;;6.35;3.50;;;;;;;;;;5066978;28;20061;-75
2022/09/23 13:16:37;;;;;;;7.07;3.13;;;;;;;;;;5065072;28;20049;-75
2022/09/23 13:19:06;;;;;;;5.28;3.28;;;;;;;;;;5067632;28;21088;-75
2022/09/23 13:21:39;;;;;;;9.57;3.40;;;;;;;;;;5066386;28;20052;-75
2022/09/23 13:24:12;;;;;;;11.63;3.35;;;;;;;;;;5067679;28;20053;-74
2022/09/23 13:26:44;;;;;;;6.30;3.33;;;;;;;;;;5067695;28;20053;-75
2022/09/23 13:29:38;;;;;;;8.40;3.45;;;;;;;;;;5065941;28;20123;-75
2022/09/23 13:32:10;;;;;;;7.60;2.75;;;;;;;;;;5064331;28;20048;-75
2022/09/23 13:34:40;;;;;;;4.82;2.63;;;;;;;;;;5068307;28;20136;-75
2022/09/23 13:37:17;;;;;;;4.82;2.38;;;;;;;;;;5068222;28;20102;-74
2022/09/23 13:39:48;;;;;;;8.45;2.58;;;;;;;;;;5067831;28;20049;-74
2022/09/23 13:42:29;;;;;;;8.57;2.83;;;;;;;;;;5073117;28;20049;-75
2022/09/23 13:44:57;;;;;;;6.78;2.72;;;;;;;;;;5071991;28;20068;-75
2022/09/23 13:47:27;;;;;;;7.88;3.28;;;;;;;;;;5069984;28;20045;-75
2022/09/23 13:49:54;;;;;;;5.93;2.85;;;;;;;;;;5071412;28;20057;-75
2022/09/23 13:52:31;;;;;;;8.45;2.58;;;;;;;;;;5074774;28;20056;-75
2022/09/23 13:54:58;;;;;;;5.10;2.85;;;;;;;;;;5071095;28;20084;-75
2022/09/23 13:57:25;;;;;;;4.07;2.35;;;;;;;;;;5079412;28;20068;-75
2022/09/23 13:59:53;;;;;;;7.90;2.78;;;;;;;;;;5088234;28;20075;-75
2022/09/23 14:02:24;;;;;;;9.07;2.80;;;;;;;;;;5067601;28;20069;-75
2022/09/23 14:04:51;;;;;;;5.68;2.90;;;;;;;;;;5072643;28;20060;-74
2022/09/23 14:07:19;;;;;;;5.03;2.60;;;;;;;;;;5068405;28;20048;-74
2022/09/23 14:09:49;;;;;;;4.78;2.65;;;;;;;;;;5074130;28;20060;-74
2022/09/23 14:12:21;;;;;;;5.82;3.00;;;;;;;;;;5067930;28;20061;-74
2022/09/23 14:14:50;;;;;;;9.25;3.30;;;;;;;;;;5071928;28;20047;-75
2022/09/23 14:17:18;;;;;;;4.95;2.72;;;;;;;;;;5076489;28;20052;-76
2022/09/23 14:19:46;;;;;;;7.53;2.97;;;;;;;;;;5074714;28;20139;-75
2022/09/23 14:22:34;;;;;;;5.88;3.10;;;;;;;;;;5067585;28;20144;-74
2022/09/23 14:25:02;;;;;;;6.18;3.30;;;;;;;;;;5074551;28;20045;-75
2022/09/23 14:27:35;;;;;;;7.40;3.10;;;;;;;;;;5066747;28;20128;-75
2022/09/23 14:30:03;;;;;;;10.25;3.10;;;;;;;;;;5064037;28;20120;-74
2022/09/23 14:32:31;;;;;;;7.22;3.15;;;;;;;;;;5066702;28;20056;-75
2022/09/23 14:35:02;;;;;;;5.90;2.72;;;;;;;;;;5067263;28;20126;-75
2022/09/23 14:40:21;;;;;;;6.72;3.15;;;;;;;;;;5071765;28;20057;-75
2022/09/23 14:42:56;;;;;;;7.63;4.30;;;;;;;;;;5080470;28;20052;-75
2022/09/23 14:45:25;;;;;;;7.60;4.13;;;;;;;;;;5062434;28;20053;-76
2022/09/23 14:48:12;;;;;;;7.43;4.70;;;;;;;;;;5066507;28;20053;-74
2022/09/23 14:50:48;;;;;;;12.13;4.50;;;;;;;;;;5064987;28;20096;-75
2022/09/23 14:53:18;;;;;;;9.40;4.57;;;;;;;;;;5071615;28;20032;-74
2022/09/23 14:55:51;;;;;;;9.95;4.60;;;;;;;;;;5070641;28;20053;-75
2022/09/23 14:58:20;;;;;;;7.85;4.65;;;;;;;;;;5075389;28;20056;-75
2022/09/23 15:00:58;;;;;;;8.82;4.32;;;;;;;;;;5071644;28;20111;-75
2022/09/23 15:03:27;;;;;;;8.10;4.90;;;;;;;;;;5071147;28;20041;-75
2022/09/23 15:06:02;;;;;;;11.13;4.93;;;;;;;;;;5073668;28;20128;-75
2022/09/23 15:08:36;;;;;;;10.00;4.80;;;;;;;;;;5071498;28;20223;-75
2022/09/23 15:11:03;;;;;;;9.80;5.18;;;;;;;;;;5071728;28;20049;-76
2022/09/23 15:13:37;;;;;;;9.98;5.05;;;;;;;;;;5072647;28;20052;-75
2022/09/23 15:16:05;;;;;;;12.70;5.00;;;;;;;;;;5071601;28;20211;-74
2022/09/23 15:18:37;;;;;;;11.30;5.45;;;;;;;;;;5065611;28;20148;-75
2022/09/23 15:21:09;;;;;;;7.25;4.70;;;;;;;;;;5074001;28;20080;-75